CheckWX is a tool to help pilots better visualize weather data.  It is not intended as a substitute for an official pre-flight weather briefing.

02:09:26 UTC

CYHZ TAF
Halifax / Stanfield International Airport
Halifax, Canada
TAF CYHZ 222338Z 2300/2324 VRB03KT 1/4SM FG VV001 TEMPO 2300/2303 1SM -RA BR OVC004 BECMG 2301/2303 05008KT FM230500 05010KT 1SM -RA BR OVC003 BECMG 2310/2312 09010KT FM231500 10012KT 1/2SM -RA FG OVC002 RMK NXT FCST BY 230300Z

Apr-23@
00:00 UTC

Apr-23 @ 00:00 UTC

Apr-23@
01:00 UTC

Apr-23 @ 01:00 UTC

TAF CYHZ 222338Z 2300/2324 VRB03KT 1/4SM FG VV001

Expired

Wind
  • Variable at 3 KTS
Conditions
Fog
Cloud Levels
  • Vertical visibility at 100' AGL

Apr-23@
00:00 UTC

Apr-23 @ 00:00 UTC

Apr-23@
03:00 UTC

Apr-23 @ 03:00 UTC

TEMPO 2300/2303 1SM -RA BR OVC004

Temporary

Temporary Changes expected for less than half the time period

Conditions
Light Rain, Mist
Cloud Levels
  • Overcast at 400' AGL

Apr-23@
01:00 UTC

Apr-23 @ 01:00 UTC

Apr-23@
05:00 UTC

Apr-23 @ 05:00 UTC

BECMG 2301/2303 05008KT

Becoming

Becoming Conditions expected by Tue, Apr 23, 2019 @ 03:00 UTC

Wind
  • 050° at 8 KTS
Conditions
Fog
Cloud Levels
  • Vertical visibility at 100' AGL

Apr-23@
05:00 UTC

Apr-23 @ 05:00 UTC

Apr-23@
10:00 UTC

Apr-23 @ 10:00 UTC

FM230500 05010KT 1SM -RA BR OVC003

From

From Standard forecast or significant change

Wind
  • 050° at 10 KTS
Conditions
Light Rain, Mist
Cloud Levels
  • Overcast at 300' AGL

Apr-23@
10:00 UTC

Apr-23 @ 10:00 UTC

Apr-23@
15:00 UTC

Apr-23 @ 15:00 UTC

BECMG 2310/2312 09010KT

Becoming

Becoming Conditions expected by Tue, Apr 23, 2019 @ 12:00 UTC

Wind
  • 090° at 10 KTS
Conditions
Light Rain, Mist
Cloud Levels
  • Overcast at 300' AGL

Apr-23@
15:00 UTC

Apr-23 @ 15:00 UTC

Apr-24@
00:00 UTC

Apr-24 @ 00:00 UTC

FM231500 10012KT 1/2SM -RA FG OVC002 RMK NXT FCST BY 230300Z

From

From Standard forecast or significant change

Wind
  • 100° at 12 KTS
Conditions
Light Rain, Fog
Cloud Levels
  • Overcast at 200' AGL